Time;durP1;ratioP1;P1;durP2;ratioP2;P2;SDS_P1;SDS_P2;PMS_P1;PMS_P2;Temp;Humidity;BMP_temperature;BMP_pressure;BME280_temperature;BME280_humidity;BME280_pressure;Samples;Min_cycle;Max_cycle;Signal;HPM_P1;HPM_P2
2023/07/04 00:00:58;;;;;;;7.53;3.45;;;;;;;;;;5094006;28;20035;-65
2023/07/04 00:03:24;;;;;;;13.00;3.92;;;;;;;;;;5075905;28;20024;-64
2023/07/04 00:05:50;;;;;;;9.40;3.42;;;;;;;;;;5093577;28;20085;-64
2023/07/04 00:08:16;;;;;;;12.48;3.35;;;;;;;;;;5093744;28;20028;-64
2023/07/04 00:10:43;;;;;;;16.50;4.45;;;;;;;;;;5093659;28;20085;-64
2023/07/04 00:13:09;;;;;;;16.70;4.43;;;;;;;;;;5093522;28;20431;-64
2023/07/04 00:15:35;;;;;;;12.50;4.47;;;;;;;;;;5093508;28;20024;-64
2023/07/04 00:18:02;;;;;;;10.93;3.15;;;;;;;;;;5093385;28;20370;-64
2023/07/04 00:20:28;;;;;;;12.65;3.47;;;;;;;;;;5093718;28;20473;-64
2023/07/04 00:22:54;;;;;;;8.45;3.53;;;;;;;;;;5093666;28;20095;-64
2023/07/04 00:25:22;;;;;;;8.38;3.10;;;;;;;;;;5093418;28;20481;-64
2023/07/04 00:27:49;;;;;;;8.45;2.70;;;;;;;;;;5093574;28;20024;-64
2023/07/04 00:30:15;;;;;;;7.55;2.70;;;;;;;;;;5093432;28;20027;-64
2023/07/04 00:32:41;;;;;;;4.40;2.63;;;;;;;;;;5093341;28;20032;-64
2023/07/04 00:35:07;;;;;;;9.63;2.85;;;;;;;;;;5093507;28;20366;-64
2023/07/04 00:37:33;;;;;;;7.82;2.90;;;;;;;;;;5092999;28;20040;-64
2023/07/04 00:40:02;;;;;;;4.25;2.28;;;;;;;;;;5093187;28;20028;-64
2023/07/04 00:42:29;;;;;;;4.15;2.15;;;;;;;;;;5093388;28;20028;-64
2023/07/04 00:44:55;;;;;;;4.88;2.28;;;;;;;;;;5092978;28;20012;-63
2023/07/04 00:47:33;;;;;;;4.75;2.40;;;;;;;;;;5093668;28;20085;-64
2023/07/04 00:50:07;;;;;;;5.25;2.00;;;;;;;;;;5093386;28;20552;-64
2023/07/04 00:52:34;;;;;;;4.72;2.08;;;;;;;;;;5093112;28;20016;-64
2023/07/04 00:55:02;;;;;;;6.15;1.95;;;;;;;;;;5093159;28;20032;-64
2023/07/04 00:57:31;;;;;;;8.73;2.40;;;;;;;;;;5075117;28;20064;-64
2023/07/04 01:00:00;;;;;;;6.60;1.90;;;;;;;;;;5093213;28;20485;-64
2023/07/04 01:02:32;;;;;;;4.63;2.35;;;;;;;;;;5093047;28;20016;-65
2023/07/04 01:05:00;;;;;;;4.30;2.22;;;;;;;;;;5093221;28;20024;-64
2023/07/04 01:07:31;;;;;;;5.88;2.28;;;;;;;;;;5093199;28;20116;-64
2023/07/04 01:10:02;;;;;;;6.13;2.13;;;;;;;;;;5093189;28;20036;-64
2023/07/04 01:12:29;;;;;;;6.13;2.42;;;;;;;;;;5093158;28;20024;-64
2023/07/04 01:14:55;;;;;;;2.92;1.70;;;;;;;;;;5093167;28;20032;-64
2023/07/04 01:17:21;;;;;;;6.60;2.67;;;;;;;;;;5092863;28;20036;-64
2023/07/04 01:19:48;;;;;;;5.70;2.72;;;;;;;;;;5092702;28;20027;-64
2023/07/04 01:22:33;;;;;;;4.45;2.58;;;;;;;;;;5092770;28;20473;-64
2023/07/04 01:25:08;;;;;;;4.68;2.55;;;;;;;;;;5092739;28;20020;-64
2023/07/04 01:27:36;;;;;;;6.65;2.50;;;;;;;;;;5092822;28;20024;-64
2023/07/04 01:30:05;;;;;;;6.28;2.40;;;14.60;1.00;;;;;;5092760;28;20043;-64
2023/07/04 01:32:32;;;;;;;5.95;2.45;;;14.50;1.00;;;;;;5092860;28;20028;-64
2023/07/04 01:35:00;;;;;;;6.57;2.85;;;14.50;1.00;;;;;;5093026;28;20467;-64
2023/07/04 01:37:29;;;;;;;8.77;2.42;;;14.50;1.00;;;;;;5092442;28;20040;-64
2023/07/04 01:39:57;;;;;;;7.80;2.92;;;14.60;1.00;;;;;;5092948;28;20447;-64
2023/07/04 01:42:23;;;;;;;5.07;2.85;;;14.60;1.00;;;;;;5092903;28;20016;-64
2023/07/04 01:44:49;;;;;;;7.15;2.60;;;14.60;1.00;;;;;;5095046;28;20450;-64
2023/07/04 01:47:15;;;;;;;7.32;2.55;;;14.60;1.00;;;;;;5096384;28;20055;-63
2023/07/04 01:49:40;;;;;;;6.60;2.55;;;14.50;1.00;;;;;;5096461;28;20419;-64
2023/07/04 01:52:06;;;;;;;11.25;2.88;;;14.40;1.00;;;;;;5096208;28;20101;-64
2023/07/04 01:54:32;;;;;;;7.32;2.72;;;14.40;1.00;;;;;;5096208;28;20032;-64
2023/07/04 01:56:57;;;;;;;6.90;2.75;;;14.40;1.00;;;;;;5095908;28;20085;-64
2023/07/04 01:59:23;;;;;;;9.50;3.15;;;14.40;1.00;;;;;;5095939;28;20059;-64
2023/07/04 02:01:49;;;;;;;8.88;2.58;;;14.40;1.00;;;;;;5096187;28;20031;-64
2023/07/04 02:04:15;;;;;;;6.32;2.67;;;14.40;1.00;;;;;;5096126;28;20031;-64
2023/07/04 02:06:41;;;;;;;8.27;2.67;;;14.40;1.00;;;;;;5077717;28;20029;-64
2023/07/04 02:09:07;;;;;;;8.30;2.50;;;14.40;1.00;;;;;;5096054;28;20473;-64
2023/07/04 02:11:32;;;;;;;8.02;2.60;;;14.40;1.00;;;;;;5096048;28;20017;-64
2023/07/04 02:13:59;;;;;;;6.63;2.50;;;14.40;1.00;;;;;;5095974;28;20036;-64
2023/07/04 02:16:25;;;;;;;8.20;2.90;;;14.40;1.00;;;;;;5095680;28;20046;-64
2023/07/04 02:18:50;;;;;;;6.90;2.92;;;14.30;1.00;;;;;;5095944;28;20020;-64
2023/07/04 02:21:16;;;;;;;8.75;2.85;;;14.30;1.00;;;;;;5095983;28;20020;-64
2023/07/04 02:23:41;;;;;;;9.40;3.20;;;14.20;1.00;;;;;;5095597;28;20020;-64
2023/07/04 02:26:07;;;;;;;8.55;2.90;;;14.20;1.00;;;;;;5095549;28;20024;-64
2023/07/04 02:28:35;;;;;;;6.93;3.20;;;14.20;1.00;;;;;;5095427;28;20030;-64
2023/07/04 02:31:01;;;;;;;11.43;3.67;;;14.10;1.00;;;;;;5095511;28;20020;-64
2023/07/04 02:33:27;;;;;;;7.00;3.50;;;14.10;1.00;;;;;;5095687;28;20070;-64
2023/07/04 02:35:52;;;;;;;9.05;3.75;;;14.00;1.00;;;;;;5095206;28;20051;-64
2023/07/04 02:38:18;;;;;;;6.32;3.40;;;14.00;1.00;;;;;;5095395;28;20028;-64
2023/07/04 02:40:45;;;;;;;9.18;3.53;;;13.90;1.00;;;;;;5077337;28;20426;-64
2023/07/04 02:43:11;;;;;;;9.30;4.18;;;13.80;3.50;;;;;;5077349;28;20024;-64
2023/07/04 02:45:38;;;;;;;6.97;3.88;;;13.80;8.00;;;;;;5095165;28;20016;-64
2023/07/04 02:48:03;;;;;;;11.20;4.05;;;13.70;10.50;;;;;;5095154;28;20398;-64
2023/07/04 02:50:29;;;;;;;6.00;3.72;;;13.70;17.00;;;;;;5095129;28;20035;-65
2023/07/04 02:52:54;;;;;;;5.07;3.42;;;13.60;18.30;;;;;;5095086;28;20035;-64
2023/07/04 02:55:20;;;;;;;5.93;3.58;;;13.50;22.00;;;;;;5095111;28;20093;-65
2023/07/04 02:57:46;;;;;;;11.40;4.68;;;13.40;29.00;;;;;;5094941;28;20016;-64
2023/07/04 03:00:12;;;;;;;6.13;4.10;;;13.40;40.80;;;;;;5095137;28;20099;-64
2023/07/04 03:02:37;;;;;;;10.80;4.38;;;13.60;40.00;;;;;;5094872;28;20082;-64
2023/07/04 03:05:03;;;;;;;11.68;4.53;;;13.60;31.40;;;;;;5095044;28;20050;-64
2023/07/04 03:07:28;;;;;;;8.75;5.03;;;13.70;27.90;;;;;;5094747;28;20028;-64
2023/07/04 03:09:54;;;;;;;11.57;5.28;;;13.70;27.50;;;;;;5094935;28;20426;-64
2023/07/04 03:12:19;;;;;;;12.35;5.15;;;13.70;28.90;;;;;;5094940;28;20028;-64
2023/07/04 03:14:45;;;;;;;11.63;5.38;;;13.70;27.50;;;;;;5094748;28;20029;-64
2023/07/04 03:17:10;;;;;;;14.75;5.75;;;13.70;29.90;;;;;;5094493;28;20058;-64
2023/07/04 03:19:36;;;;;;;9.00;5.35;;;13.70;29.70;;;;;;5094512;28;20016;-64
2023/07/04 03:22:02;;;;;;;13.20;5.38;;;13.70;26.50;;;;;;5094440;28;20040;-64
2023/07/04 03:24:27;;;;;;;9.10;5.25;;;13.80;26.20;;;;;;5094506;28;20047;-64
2023/07/04 03:26:53;;;;;;;13.30;5.40;;;13.80;24.20;;;;;;5094708;28;20028;-64
2023/07/04 03:29:18;;;;;;;9.27;4.90;;;13.80;25.10;;;;;;5094557;28;20063;-64
2023/07/04 03:31:44;;;;;;;16.33;5.60;;;13.80;23.00;;;;;;5094266;28;20073;-64
2023/07/04 03:34:09;;;;;;;16.08;5.28;;;13.90;22.30;;;;;;5094395;28;20081;-64
2023/07/04 03:36:35;;;;;;;9.63;5.07;;;13.90;20.50;;;;;;5093897;28;20051;-64
2023/07/04 03:39:00;;;;;;;11.02;5.10;;;14.00;16.90;;;;;;5094107;28;20103;-64
2023/07/04 03:41:26;;;;;;;11.25;4.90;;;14.00;12.60;;;;;;5094106;28;20020;-64
2023/07/04 03:43:52;;;;;;;10.48;4.78;;;13.90;10.70;;;;;;5093906;28;20032;-63
2023/07/04 03:46:17;;;;;;;9.98;5.72;;;13.90;18.30;;;;;;5094096;28;20392;-64
2023/07/04 03:48:43;;;;;;;12.45;5.65;;;13.90;21.30;;;;;;5094109;28;20039;-64
2023/07/04 03:51:09;;;;;;;11.18;5.47;;;13.90;19.30;;;;;;5094218;28;20036;-63
2023/07/04 03:53:37;;;;;;;12.52;5.40;;;13.90;14.60;;;;;;5093686;28;20035;-63
2023/07/04 03:56:05;;;;;;;13.90;5.40;;;13.90;15.60;;;;;;5093757;28;20027;-63
2023/07/04 03:58:31;;;;;;;17.35;5.50;;;13.90;9.50;;;;;;5093880;28;20028;-63
2023/07/04 04:00:56;;;;;;;11.70;5.15;;;13.90;4.50;;;;;;5093851;28;20031;-64
2023/07/04 04:03:24;;;;;;;14.10;5.70;;;14.00;1.00;;;;;;5093831;28;20031;-63
2023/07/04 04:05:50;;;;;;;18.33;5.90;;;14.10;1.00;;;;;;5093827;28;20028;-64
2023/07/04 04:08:15;;;;;;;18.67;5.88;;;14.20;1.00;;;;;;5093507;28;20032;-63
2023/07/04 04:10:41;;;;;;;23.08;5.57;;;14.30;1.00;;;;;;5093598;28;20024;-63
2023/07/04 04:13:06;;;;;;;21.13;5.72;;;14.50;1.00;;;;;;5093561;28;20028;-63
2023/07/04 04:15:32;;;;;;;15.23;5.05;;;14.50;1.00;;;;;;5093447;28;20487;-63
2023/07/04 04:17:57;;;;;;;16.90;4.95;;;14.60;1.00;;;;;;5093491;28;20077;-64
2023/07/04 04:20:24;;;;;;;22.05;5.85;;;14.60;1.00;;;;;;5093417;28;20510;-63
2023/07/04 04:22:50;;;;;;;22.25;5.88;;;14.60;1.00;;;;;;5093535;28;20036;-64
2023/07/04 04:25:17;;;;;;;17.27;5.55;;;14.70;1.00;;;;;;5093453;28;20066;-63
2023/07/04 04:27:46;;;;;;;21.33;5.28;;;14.70;1.00;;;;;;5093161;28;20031;-63
2023/07/04 04:30:12;;;;;;;19.95;6.05;;;14.80;1.00;;;;;;5093358;28;20103;-63
2023/07/04 04:32:38;;;;;;;14.82;5.10;;;14.80;1.00;;;;;;5093330;28;20036;-63
2023/07/04 04:35:05;;;;;;;17.25;5.25;;;14.80;1.00;;;;;;5075379;28;20024;-64
2023/07/04 04:37:32;;;;;;;26.38;6.05;;;14.80;1.00;;;;;;5075240;28;20412;-64
2023/07/04 04:39:58;;;;;;;18.20;5.95;;;14.90;1.00;;;;;;5093271;28;20024;-63
2023/07/04 04:42:24;;;;;;;24.73;6.38;;;15.00;1.00;;;;;;5093291;28;20473;-64
2023/07/04 04:44:53;;;;;;;16.48;5.57;;;15.00;1.00;;;;;;5093319;28;20031;-64
2023/07/04 04:47:23;;;;;;;22.77;5.57;;;15.10;1.00;;;;;;5093143;28;20034;-64
2023/07/04 04:49:51;;;;;;;20.20;5.57;;;15.10;1.00;;;;;;5093300;28;20397;-64
2023/07/04 04:52:19;;;;;;;14.63;6.50;;;15.10;1.00;;;;;;5093434;28;20020;-64
2023/07/04 04:54:45;;;;;;;17.58;6.75;;;14.90;1.00;;;;;;5093034;28;20028;-63
2023/07/04 04:57:12;;;;;;;20.38;6.68;;;14.80;1.00;;;;;;5093034;28;20036;-63
2023/07/04 04:59:37;;;;;;;18.30;7.22;;;14.80;1.00;;;;;;5093284;28;20047;-64
2023/07/04 05:02:03;;;;;;;21.48;7.35;;;14.80;1.00;;;;;;5093066;28;20020;-63
2023/07/04 05:04:28;;;;;;;22.20;7.40;;;14.90;1.00;;;;;;5093090;28;20024;-63
2023/07/04 05:06:54;;;;;;;21.15;8.07;;;14.90;1.00;;;;;;5093258;28;20036;-64
2023/07/04 05:09:20;;;;;;;18.48;9.30;;;14.80;1.00;;;;;;5092978;28;20059;-64
2023/07/04 05:11:45;;;;;;;17.67;7.72;;;14.70;1.00;;;;;;5092951;28;20374;-64
2023/07/04 05:14:12;;;;;;;14.40;8.18;;;14.40;27.30;;;;;;5093113;28;20532;-64
2023/07/04 05:16:37;;;;;;;15.35;7.38;;;14.20;49.80;;;;;;5092869;28;20028;-63
2023/07/04 05:19:03;;;;;;;17.25;7.43;;;14.00;66.20;;;;;;5094335;28;20054;-64
2023/07/04 05:21:28;;;;;;;11.52;6.80;;;14.00;90.60;;;;;;5097050;28;20449;-63
2023/07/04 05:23:54;;;;;;;17.92;6.28;;;13.80;95.80;;;;;;5096810;28;20392;-63
2023/07/04 05:26:23;;;;;;;16.85;6.35;;;13.70;99.90;;;;;;5096647;28;20058;-63
2023/07/04 05:28:51;;;;;;;11.38;5.57;;;13.50;99.90;;;;;;5079229;28;20500;-63
2023/07/04 05:31:22;;;;;;;19.05;6.95;;;13.40;99.90;;;;;;5096843;28;20051;-63
2023/07/04 05:33:48;;;;;;;20.77;6.10;;;13.30;99.90;;;;;;5096695;28;20504;-63
2023/07/04 05:36:21;;;;;;;16.42;6.32;;;13.40;99.90;;;;;;5096399;28;20036;-63
2023/07/04 05:38:51;;;;;;;16.05;6.65;;;13.30;99.90;;;;;;5079282;28;20073;-63
2023/07/04 05:41:18;;;;;;;14.63;7.32;;;13.30;99.90;;;;;;5096806;28;20020;-63
2023/07/04 05:43:44;;;;;;;15.13;7.35;;;13.40;99.90;;;;;;5096554;28;20491;-63
2023/07/04 05:46:12;;;;;;;23.17;8.68;;;13.40;99.90;;;;;;5078199;28;20020;-63
2023/07/04 05:48:38;;;;;;;20.13;8.80;;;13.40;99.90;;;;;;5078085;28;20024;-63
2023/07/04 05:51:07;;;;;;;20.40;8.98;;;13.40;99.90;;;;;;5096241;28;20016;-63
2023/07/04 05:53:35;;;;;;;20.77;10.10;;;13.50;99.90;;;;;;5078336;28;20020;-63
2023/07/04 05:58:57;;;;;;;17.92;10.38;;;13.50;99.90;;;;;;5070366;28;20425;-63
2023/07/04 06:01:29;;;;;;;19.08;10.35;;;13.50;99.90;;;;;;5070481;28;20032;-64
2023/07/04 06:03:55;;;;;;;15.50;9.10;;;13.60;99.90;;;;;;5059573;28;20033;-65
2023/07/04 06:06:25;;;;;;;18.77;10.13;;;13.70;99.90;;;;;;5069387;28;20111;-64
2023/07/04 06:08:51;;;;;;;19.20;9.07;;;14.10;99.90;;;;;;5069295;28;20025;-64
2023/07/04 06:11:19;;;;;;;16.60;7.70;;;14.10;99.90;;;;;;5069705;28;20128;-64
2023/07/04 06:13:45;;;;;;;15.85;6.88;;;14.40;99.90;;;;;;5070050;28;20129;-64
2023/07/04 06:16:11;;;;;;;21.98;7.20;;;14.60;99.90;;;;;;5069670;28;20016;-64
2023/07/04 06:18:37;;;;;;;10.38;6.72;;;14.70;99.90;;;;;;5070145;28;20028;-65
2023/07/04 06:21:08;;;;;;;18.88;6.90;;;15.00;92.80;;;;;;5069205;28;20544;-64
2023/07/04 06:23:34;;;;;;;15.88;6.03;;;15.50;34.80;;;;;;5058227;28;20475;-64
2023/07/04 06:26:00;;;;;;;14.00;5.05;;;16.50;1.00;;;;;;5070120;28;20036;-65
2023/07/04 06:28:26;;;;;;;11.77;5.15;;;17.20;1.00;;;;;;5069820;28;20033;-66
2023/07/04 06:30:51;;;;;;;14.18;5.30;;;;;;;;;;5049213;28;20033;-64
2023/07/04 06:33:17;;;;;;;14.52;4.82;;;19.30;1.00;;;;;;5048505;28;20039;-64
2023/07/04 06:35:43;;;;;;;14.82;4.78;;;19.70;99.90;;;;;;5049788;28;20029;-64
2023/07/04 06:38:10;;;;;;;13.25;4.88;;;20.10;99.90;;;;;;5049323;28;20033;-65
2023/07/04 06:40:36;;;;;;;14.65;4.78;;;20.10;99.90;;;;;;5048795;28;20033;-65
2023/07/04 06:43:03;;;;;;;18.00;5.35;;;20.40;1.00;;;;;;5049938;28;20029;-65
2023/07/04 06:45:31;;;;;;;11.23;4.88;;;20.20;99.90;;;;;;5049440;28;20109;-64
2023/07/04 06:47:56;;;;;;;11.25;5.38;;;19.60;99.90;;;;;;5049358;28;20033;-64
2023/07/04 06:50:22;;;;;;;16.27;5.85;;;19.60;99.90;;;;;;5049597;28;20435;-65
2023/07/04 06:52:47;;;;;;;18.92;6.25;;;19.70;99.90;;;;;;5049462;28;20037;-64
2023/07/04 06:55:13;;;;;;;19.70;7.00;;;19.50;99.90;;;;;;5049601;28;20093;-64
2023/07/04 06:57:39;;;;;;;15.50;6.38;;;19.00;1.00;;;;;;5048231;28;20083;-64
2023/07/04 07:00:05;;;;;;;21.58;7.25;;;19.10;99.90;;;;;;5041644;28;20506;-66
2023/07/04 07:02:32;;;;;;;19.88;7.18;;;19.20;1.00;;;;;;5029133;28;20033;-66
2023/07/04 07:04:57;;;;;;;24.17;7.80;;;18.70;1.00;;;;;;5047824;28;20027;-65
2023/07/04 07:07:23;;;;;;;23.58;7.43;;;19.00;99.90;;;;;;5035550;28;20036;-65
2023/07/04 07:09:49;;;;;;;20.15;7.60;;;19.10;99.90;;;;;;5034158;28;20108;-65
2023/07/04 07:12:14;;;;;;;17.52;6.32;;;19.00;99.90;;;;;;5035295;28;20427;-64
2023/07/04 07:14:40;;;;;;;15.10;6.05;;;19.50;1.00;;;;;;5029100;28;20041;-68
2023/07/04 07:17:06;;;;;;;17.20;6.10;;;20.00;99.90;;;;;;5031524;28;20373;-64
2023/07/04 07:19:33;;;;;;;20.10;6.32;;;19.90;99.90;;;;;;5033209;28;20068;-64
2023/07/04 07:22:00;;;;;;;19.95;6.72;;;19.50;99.90;;;;;;5029574;28;20053;-63
2023/07/04 07:24:27;;;;;;;22.83;6.88;;;19.20;99.90;;;;;;5020330;28;20484;-63
2023/07/04 07:26:53;;;;;;;21.20;6.78;;;19.10;99.90;;;;;;5031013;28;20391;-63
2023/07/04 07:29:18;;;;;;;17.13;6.22;;;19.10;99.90;;;;;;5031916;28;20036;-65
2023/07/04 07:31:44;;;;;;;18.75;6.10;;;20.50;99.90;;;;;;5031729;28;20040;-64
2023/07/04 07:34:10;;;;;;;18.98;6.72;;;21.60;1.00;;;;;;5035234;28;20033;-64
2023/07/04 07:36:37;;;;;;;19.48;6.20;;;21.10;1.00;;;;;;5031415;28;20041;-65
2023/07/04 07:39:05;;;;;;;12.55;6.22;;;20.60;99.90;;;;;;5021373;28;20034;-64
2023/07/04 07:41:34;;;;;;;19.30;6.50;;;19.70;1.00;;;;;;5033819;28;20364;-64
2023/07/04 07:44:00;;;;;;;19.10;7.00;;;19.30;1.00;;;;;;5021503;28;20034;-64
2023/07/04 07:46:26;;;;;;;18.63;7.43;;;19.50;1.00;;;;;;5042083;28;20059;-63
2023/07/04 07:48:51;;;;;;;14.18;6.53;;;19.10;1.00;;;;;;5047090;28;20104;-64
2023/07/04 07:51:19;;;;;;;23.30;7.93;;;19.40;99.90;;;;;;5044125;28;20053;-64
2023/07/04 07:53:47;;;;;;;16.45;7.05;;;20.00;19.20;;;;;;5034193;28;20025;-64
2023/07/04 07:56:14;;;;;;;15.55;6.63;;;21.10;99.90;;;;;;5034547;28;20388;-64
2023/07/04 07:58:40;;;;;;;16.15;6.25;;;20.80;1.00;;;;;;5030216;28;20084;-66
2023/07/04 08:01:18;;;;;;;17.20;6.28;;;19.50;91.70;;;;;;5015260;28;20033;-64
2023/07/04 08:03:44;;;;;;;21.73;6.72;;;19.90;99.90;;;;;;5048381;28;20056;-64
2023/07/04 08:06:23;;;;;;;14.55;6.18;;;19.80;1.00;;;;;;5040858;28;20447;-64
2023/07/04 08:08:49;;;;;;;19.23;6.28;;;20.20;99.90;;;;;;5033228;28;20033;-64
2023/07/04 08:11:15;;;;;;;16.40;5.95;;;20.20;12.90;;;;;;5030768;28;20025;-64
2023/07/04 08:13:41;;;;;;;17.30;6.63;;;20.80;1.00;;;;;;5033774;28;20044;-65
2023/07/04 08:16:07;;;;;;;16.35;6.32;;;20.10;99.90;;;;;;5019094;28;20033;-64
2023/07/04 08:18:33;;;;;;;16.98;6.03;;;20.20;99.90;;;;;;5021448;28;20518;-64
2023/07/04 08:21:01;;;;;;;20.30;6.93;;;19.50;99.90;;;;;;5018942;28;20427;-65
2023/07/04 08:23:27;;;;;;;16.73;6.93;;;19.60;1.00;;;;;;5018931;28;20455;-64
2023/07/04 08:25:53;;;;;;;13.25;6.13;;;20.30;1.00;;;;;;5029355;28;20018;-65
2023/07/04 08:28:21;;;;;;;15.57;5.43;;;21.10;99.90;;;;;;5022293;28;20033;-65
2023/07/04 08:30:47;;;;;;;15.02;5.63;;;20.80;1.00;;;;;;5020813;28;20029;-64
2023/07/04 08:33:17;;;;;;;18.25;5.82;;;19.90;21.00;;;;;;5014529;28;20029;-64
2023/07/04 08:36:00;;;;;;;22.27;6.35;;;19.60;99.90;;;;;;5021362;28;20506;-63
2023/07/04 08:38:26;;;;;;;;;;;19.40;99.90;;;;;;5024546;28;20034;-67
2023/07/04 08:40:52;;;;;;;14.38;5.85;;;19.20;1.00;;;;;;5017592;28;19916;-64
2023/07/04 08:43:24;;;;;;;17.80;6.53;;;19.30;99.90;;;;;;5030605;28;20068;-64
2023/07/04 08:45:52;;;;;;;14.43;6.07;;;19.60;99.90;;;;;;5020736;28;20030;-65
2023/07/04 08:48:20;;;;;;;13.43;5.70;;;20.10;1.00;;;;;;5027849;28;20057;-66
2023/07/04 08:50:47;;;;;;;19.73;5.80;;;20.90;99.90;;;;;;5032874;28;20483;-65
2023/07/04 08:53:18;;;;;;;18.10;5.40;;;20.70;1.00;;;;;;5033957;28;20036;-64
2023/07/04 08:56:16;;;;;;;16.85;6.22;;;20.50;1.00;;;;;;5025941;28;20109;-66
2023/07/04 08:59:01;;;;;;;13.88;5.78;;;19.80;1.00;;;;;;5021814;28;20099;-64
2023/07/04 09:01:56;;;;;;;14.15;5.40;;;20.70;1.00;;;;;;5019483;28;20037;-65
2023/07/04 09:04:36;;;;;;;16.30;5.22;;;20.70;99.90;;;;;;5026596;28;20368;-64
2023/07/04 09:09:51;;;;;;;13.30;4.82;;;19.90;99.90;;;;;;5169010;27;20399;-65
2023/07/04 09:12:17;;;;;;;14.18;5.07;;;19.80;99.90;;;;;;5151950;27;20046;-64
2023/07/04 09:14:54;;;;;;;15.52;5.28;;;19.60;99.90;;;;;;5152257;27;20095;-64
2023/07/04 09:17:33;;;;;;;14.77;5.38;;;19.40;1.00;;;;;;5132876;27;20473;-64
2023/07/04 09:20:02;;;;;;;14.68;5.30;;;20.80;1.00;;;;;;5137793;27;20015;-64
2023/07/04 09:22:28;;;;;;;10.35;4.72;;;20.80;99.90;;;;;;5129877;28;20029;-65
2023/07/04 09:24:54;;;;;;;14.23;4.78;;;21.00;99.90;;;;;;5128876;28;20106;-64
2023/07/04 09:27:20;;;;;;;14.90;4.80;;;20.10;99.90;;;;;;5121496;28;20024;-64
2023/07/04 09:29:46;;;;;;;14.07;4.55;;;19.90;1.00;;;;;;5126656;28;20062;-64
2023/07/04 09:32:12;;;;;;;18.17;5.18;;;20.20;99.90;;;;;;5123303;28;20118;-64
2023/07/04 09:34:50;;;;;;;10.07;4.40;;;21.40;99.90;;;;;;5131028;28;20038;-64
2023/07/04 09:37:19;;;;;;;17.58;4.68;;;22.30;99.90;;;;;;5128841;28;20481;-64
2023/07/04 09:39:50;;;;;;;11.00;4.00;;;22.00;99.90;;;;;;5129256;28;20026;-64
2023/07/04 09:42:19;;;;;;;13.18;4.15;;;21.00;99.90;;;;;;5130860;28;20027;-64
2023/07/04 09:44:48;;;;;;;14.25;4.20;;;20.50;99.90;;;;;;5130988;28;20472;-64
2023/07/04 09:47:24;;;;;;;13.25;4.60;;;20.30;99.90;;;;;;5123699;28;20023;-64
2023/07/04 09:50:23;;;;;;;13.10;4.38;;;19.90;99.90;;;;;;5127485;28;20548;-64
2023/07/04 09:53:02;;;;;;;8.20;3.80;;;19.50;99.90;;;;;;5128782;28;20384;-64
2023/07/04 09:55:28;;;;;;;9.07;4.07;;;20.40;99.90;;;;;;5110029;28;20076;-65
2023/07/04 09:58:13;;;;;;;13.73;4.22;;;21.10;99.90;;;;;;5117591;28;20126;-64
2023/07/04 10:00:38;;;;;;;10.18;4.30;;;21.40;58.30;;;;;;5130570;28;20024;-64
2023/07/04 10:03:07;;;;;;;7.68;3.47;;;21.60;1.00;;;;;;5118010;28;20028;-65
2023/07/04 10:05:35;;;;;;;8.02;3.45;;;21.80;1.00;;;;;;5124566;28;20034;-65
2023/07/04 10:08:06;;;;;;;8.98;3.47;;;21.60;1.00;;;;;;5125866;28;20046;-64
2023/07/04 10:10:40;;;;;;;10.68;3.50;;;21.80;1.00;;;;;;5109847;28;20108;-63
2023/07/04 10:13:07;;;;;;;10.68;3.30;;;21.40;99.90;;;;;;5126244;28;20408;-64
2023/07/04 10:15:39;;;;;;;15.13;4.03;;;21.40;1.00;;;;;;5121309;28;20016;-63
2023/07/04 10:18:05;;;;;;;12.05;3.42;;;22.10;99.90;;;;;;5118742;28;20028;-66
2023/07/04 10:20:39;;;;;;;8.73;3.38;;;22.50;99.90;;;;;;5108413;28;20454;-64
2023/07/04 10:23:05;;;;;;;9.82;3.25;;;22.10;99.90;;;;;;5109298;28;20115;-63
2023/07/04 10:25:31;;;;;;;9.60;3.28;;;22.10;99.90;;;;;;5110230;28;20114;-64
2023/07/04 10:28:12;;;;;;;8.80;3.20;;;22.50;99.90;;;;;;5096496;28;20035;-65
2023/07/04 10:30:41;;;;;;;13.15;3.75;;;22.20;99.90;;;;;;5105335;28;20032;-65
2023/07/04 10:33:16;;;;;;;8.60;3.67;;;21.90;99.90;;;;;;5107463;28;20027;-64
2023/07/04 10:35:45;;;;;;;11.52;3.30;;;22.00;99.90;;;;;;5104665;28;20023;-64
2023/07/04 10:38:25;;;;;;;10.45;3.28;;;22.20;99.90;;;;;;5103906;28;20035;-66
2023/07/04 10:40:51;;;;;;;10.38;3.90;;;23.00;1.00;;;;;;5103698;28;20027;-66
2023/07/04 10:43:27;;;;;;;9.00;3.40;;;22.60;52.00;;;;;;5105910;28;20396;-64
2023/07/04 10:45:55;;;;;;;12.15;3.47;;;22.10;1.00;;;;;;5100540;28;20115;-64
2023/07/04 10:48:22;;;;;;;9.57;3.17;;;21.80;1.00;;;;;;5112836;28;20028;-65
2023/07/04 10:50:56;;;;;;;8.07;2.88;;;21.80;1.00;;;;;;5115524;28;20023;-64
2023/07/04 10:53:22;;;;;;;8.75;2.83;;;22.30;1.00;;;;;;5115150;28;20550;-64
2023/07/04 10:56:09;;;;;;;6.90;2.92;;;22.10;1.00;;;;;;5101641;28;20418;-64
2023/07/04 10:58:40;;;;;;;9.70;3.20;;;22.20;1.00;;;;;;5098139;28;20032;-64
2023/07/04 11:01:16;;;;;;;8.27;3.00;;;21.70;1.00;;;;;;5111732;28;20031;-64
2023/07/04 11:03:49;;;;;;;7.45;3.10;;;21.80;1.00;;;;;;5109441;28;20038;-64
2023/07/04 11:06:22;;;;;;;10.70;3.17;;;21.90;1.00;;;;;;5114737;28;20039;-64
2023/07/04 11:08:50;;;;;;;9.35;2.90;;;22.20;1.00;;;;;;5101896;28;20040;-64
2023/07/04 11:11:26;;;;;;;9.48;3.35;;;22.00;1.00;;;;;;5099606;28;20094;-64
2023/07/04 11:13:55;;;;;;;14.13;3.20;;;22.50;1.00;;;;;;5101732;28;20385;-64
2023/07/04 11:16:27;;;;;;;5.97;2.67;;;22.70;1.00;;;;;;5108598;28;20023;-66
2023/07/04 11:19:04;;;;;;;8.35;2.45;;;22.00;1.00;;;;;;5097318;28;20032;-65
2023/07/04 11:21:31;;;;;;;11.90;2.65;;;22.20;1.00;;;;;;5100525;28;20045;-66
2023/07/04 11:24:18;;;;;;;8.57;2.95;;;22.30;1.00;;;;;;5097235;28;20370;-67
2023/07/04 11:26:56;;;;;;;8.85;3.15;;;22.50;1.00;;;;;;5106122;28;20076;-66
2023/07/04 11:29:24;;;;;;;9.85;3.20;;;22.80;1.00;;;;;;5108263;28;20488;-64
2023/07/04 11:34:49;;;;;;;11.18;3.25;;;22.80;1.00;;;;;;5109842;27;20396;-64
2023/07/04 11:37:18;;;;;;;6.82;2.88;;;22.70;1.00;;;;;;5109151;28;20106;-64
2023/07/04 11:39:49;;;;;;;8.23;3.30;;;23.10;1.00;;;;;;5108983;28;20035;-65
2023/07/04 11:42:19;;;;;;;7.15;3.42;;;23.10;1.00;;;;;;5109946;28;20473;-65
2023/07/04 11:44:59;;;;;;;7.32;2.67;;;22.90;1.00;;;;;;5108955;28;20515;-65
2023/07/04 11:47:34;;;;;;;9.02;3.10;;;23.30;1.00;;;;;;5092419;28;20032;-65
2023/07/04 11:50:05;;;;;;;12.48;3.28;;;22.90;1.00;;;;;;5109403;28;20068;-65
2023/07/04 11:52:33;;;;;;;7.00;2.80;;;23.30;1.00;;;;;;5108618;28;20020;-65
2023/07/04 11:55:05;;;;;;;11.02;2.90;;;23.40;1.00;;;;;;5112974;27;20027;-63
2023/07/04 11:58:10;;;;;;;11.88;3.38;;;23.30;1.00;;;;;;5111126;27;20122;-64
2023/07/04 12:03:25;;;;;;;7.55;3.45;;;23.00;1.00;;;;;;5110804;27;20133;-64
2023/07/04 12:05:59;;;;;;;12.85;3.33;;;22.60;99.90;;;;;;5098123;28;20040;-65
2023/07/04 12:08:50;;;;;;;12.30;3.03;;;22.80;99.90;;;;;;5098170;28;20027;-64
2023/07/04 12:11:42;;;;;;;11.10;3.30;;;22.60;99.90;;;;;;5105882;28;20027;-65
2023/07/04 12:14:12;;;;;;;8.18;3.10;;;22.70;99.90;;;;;;5097545;27;20402;-66
2023/07/04 12:16:37;;;;;;;11.60;3.33;;;23.10;99.90;;;;;;5093406;28;20038;-64
2023/07/04 12:19:04;;;;;;;8.60;3.03;;;23.20;99.90;;;;;;5097371;28;20035;-64
2023/07/04 12:21:32;;;;;;;11.32;3.25;;;22.90;99.90;;;;;;5090634;28;20035;-63
2023/07/04 12:24:02;;;;;;;8.98;2.90;;;22.70;99.90;;;;;;5104338;28;20052;-63
2023/07/04 12:26:30;;;;;;;15.75;3.75;;;22.60;99.90;;;;;;5104100;28;20367;-63
2023/07/04 12:28:55;;;;;;;10.30;3.47;;;22.70;99.90;;;;;;5102578;28;20114;-63
2023/07/04 12:31:21;;;;;;;8.23;2.97;;;23.10;99.90;;;;;;5113170;28;20094;-64
2023/07/04 12:33:47;;;;;;;9.40;3.22;;;23.20;99.90;;;;;;5099865;28;20442;-64
2023/07/04 12:36:16;;;;;;;7.97;2.78;;;22.90;99.90;;;;;;5109972;28;20035;-64
2023/07/04 12:38:47;;;;;;;9.57;3.20;;;23.00;99.90;;;;;;5107336;28;20107;-64
2023/07/04 12:41:18;;;;;;;19.15;3.38;;;23.60;99.90;;;;;;5110740;28;20481;-64
2023/07/04 12:43:44;;;;;;;10.07;3.45;;;22.80;99.90;;;;;;5126261;27;20023;-65
2023/07/04 12:46:12;;;;;;;10.52;2.92;;;22.80;99.90;;;;;;5116123;28;20027;-64
2023/07/04 12:48:38;;;;;;;6.10;2.97;;;22.60;99.90;;;;;;5104855;28;20023;-64
2023/07/04 12:51:13;;;;;;;9.57;3.50;;;22.60;99.90;;;;;;5101702;27;20030;-65
2023/07/04 12:53:40;;;;;;;9.10;3.28;;;22.40;99.90;;;;;;5104311;28;20036;-64
2023/07/04 12:56:09;;;;;;;7.38;3.28;;;22.60;99.90;;;;;;5107484;28;20496;-64
2023/07/04 12:58:39;;;;;;;6.80;3.00;;;22.60;99.90;;;;;;5110110;28;20163;-64
2023/07/04 13:01:08;;;;;;;7.15;3.28;;;22.40;99.90;;;;;;5108122;28;20096;-64
2023/07/04 13:03:35;;;;;;;10.18;3.58;;;22.20;99.90;;;;;;5103768;28;20093;-65
2023/07/04 13:06:02;;;;;;;8.25;3.67;;;22.20;99.90;;;;;;5095406;28;20035;-64
2023/07/04 13:08:30;;;;;;;7.47;3.50;;;22.50;99.90;;;;;;5104409;28;20027;-64
2023/07/04 13:10:58;;;;;;;11.07;3.25;;;22.70;99.90;;;;;;5100267;28;20032;-65
2023/07/04 13:13:38;;;;;;;10.80;3.30;;;22.50;99.90;;;;;;5086967;28;20478;-66